createdAt,value
2019-02-16T00:00:52.900Z,1016.16
2019-02-16T00:01:52.912Z,1016.15
2019-02-16T00:02:53.944Z,1016.20
2019-02-16T00:03:52.943Z,1016.21
2019-02-16T00:04:53.978Z,1016.25
2019-02-16T00:05:52.993Z,1016.23
2019-02-16T00:06:53.001Z,1016.24
2019-02-16T00:07:54.022Z,1016.23
2019-02-16T00:08:53.040Z,1016.26
2019-02-16T00:09:54.056Z,1016.27
2019-02-16T00:10:53.067Z,1016.29
2019-02-16T00:11:53.093Z,1016.32
2019-02-16T00:12:54.110Z,1016.34
2019-02-16T00:13:53.135Z,1016.37
2019-02-16T00:14:54.168Z,1016.32
2019-02-16T00:15:53.151Z,1016.36
2019-02-16T00:16:53.170Z,1016.33
2019-02-16T00:17:54.219Z,1016.38
2019-02-16T00:18:53.204Z,1016.37
2019-02-16T00:19:54.230Z,1016.43
2019-02-16T00:20:53.235Z,1016.46
2019-02-16T00:21:53.252Z,1016.47
2019-02-16T00:22:54.280Z,1016.49
2019-02-16T00:23:53.288Z,1016.52
2019-02-16T00:24:54.315Z,1016.54
2019-02-16T00:25:53.372Z,1016.55
2019-02-16T00:26:53.402Z,1016.60
2019-02-16T00:27:54.368Z,1016.58
2019-02-16T00:28:53.376Z,1016.64
2019-02-16T00:29:54.399Z,1016.69
2019-02-16T00:30:53.405Z,1016.68
2019-02-16T00:31:53.424Z,1016.69
2019-02-16T00:32:55.757Z,1016.71
2019-02-16T00:33:53.463Z,1016.68
2019-02-16T00:34:54.487Z,1016.67
2019-02-16T00:35:53.498Z,1016.67
2019-02-16T00:36:53.508Z,1016.66
2019-02-16T00:37:54.543Z,1016.68
2019-02-16T00:38:54.204Z,1016.65
2019-02-16T00:39:54.572Z,1016.66
2019-02-16T00:40:53.579Z,1016.69
2019-02-16T00:41:53.597Z,1016.73
2019-02-16T00:42:54.624Z,1016.70
2019-02-16T00:43:53.651Z,1016.76
2019-02-16T00:44:54.660Z,1016.81
2019-02-16T00:45:53.682Z,1016.82
2019-02-16T00:46:53.683Z,1016.83
2019-02-16T00:47:54.712Z,1016.84
2019-02-16T00:48:53.794Z,1016.85
2019-02-16T00:49:54.746Z,1016.84
2019-02-16T00:50:53.752Z,1016.89
2019-02-16T00:51:53.765Z,1016.90
2019-02-16T00:52:54.798Z,1016.88
2019-02-16T00:53:53.811Z,1016.86
2019-02-16T00:54:54.829Z,1016.85
2019-02-16T00:55:53.839Z,1016.87
2019-02-16T00:56:53.848Z,1016.90
2019-02-16T00:57:54.993Z,1016.95
2019-02-16T00:58:53.881Z,1017.00
2019-02-16T00:59:54.928Z,1017.05
2019-02-16T01:00:53.925Z,1017.06
2019-02-16T01:01:53.935Z,1017.03
2019-02-16T01:02:54.969Z,1017.05
2019-02-16T01:03:53.963Z,1017.10
2019-02-16T01:04:55.003Z,1017.08
2019-02-16T01:05:54.012Z,1017.05
2019-02-16T01:06:54.027Z,1017.05
2019-02-16T01:07:55.075Z,1017.07
2019-02-16T01:08:54.056Z,1017.05
2019-02-16T01:09:55.085Z,1017.03
2019-02-16T01:10:54.102Z,1017.09
2019-02-16T01:11:54.111Z,1017.09
2019-02-16T01:12:55.133Z,1017.07
2019-02-16T01:13:54.141Z,1017.17
2019-02-16T01:14:55.166Z,1017.20
2019-02-16T01:15:54.200Z,1017.19
2019-02-16T01:16:54.197Z,1017.23
2019-02-16T01:17:55.223Z,1017.21
2019-02-16T01:18:54.227Z,1017.28
2019-02-16T01:19:55.267Z,1017.33
2019-02-16T01:20:54.261Z,1017.35
2019-02-16T01:21:54.283Z,1017.36
2019-02-16T01:22:55.310Z,1017.35
2019-02-16T01:23:54.321Z,1017.37
2019-02-16T01:24:55.337Z,1017.34
2019-02-16T01:25:54.352Z,1017.33
2019-02-16T01:26:54.359Z,1017.34
2019-02-16T01:27:55.410Z,1017.35
2019-02-16T01:28:54.391Z,1017.29
2019-02-16T01:29:55.427Z,1017.29
2019-02-16T01:30:54.431Z,1017.30
2019-02-16T01:31:54.448Z,1017.29
2019-02-16T01:32:55.477Z,1017.29
2019-02-16T01:33:54.486Z,1017.30
2019-02-16T01:34:55.513Z,1017.28
2019-02-16T01:35:54.529Z,1017.28
2019-02-16T01:36:54.540Z,1017.25
2019-02-16T01:37:55.561Z,1017.25
2019-02-16T01:38:54.574Z,1017.25
2019-02-16T01:39:55.615Z,1017.28
2019-02-16T01:40:54.607Z,1017.30
2019-02-16T01:41:54.634Z,1017.29
2019-02-16T01:42:55.651Z,1017.32
2019-02-16T01:43:54.655Z,1017.34
2019-02-16T01:44:55.692Z,1017.33
2019-02-16T01:45:54.684Z,1017.37
2019-02-16T01:46:54.710Z,1017.38
2019-02-16T01:47:55.737Z,1017.40
2019-02-16T01:48:54.741Z,1017.37
2019-02-16T01:49:55.772Z,1017.40
2019-02-16T01:50:54.829Z,1017.46
2019-02-16T01:51:54.804Z,1017.45
2019-02-16T01:52:55.823Z,1017.46
2019-02-16T01:53:54.825Z,1017.45
2019-02-16T01:54:55.858Z,1017.47
2019-02-16T01:55:54.861Z,1017.46
2019-02-16T01:56:54.873Z,1017.50
2019-02-16T01:57:55.901Z,1017.44
2019-02-16T01:58:54.905Z,1017.46
2019-02-16T01:59:55.990Z,1017.45
2019-02-16T02:00:54.942Z,1017.50
2019-02-16T02:01:54.968Z,1017.52
2019-02-16T02:02:55.995Z,1017.51
2019-02-16T02:03:55.000Z,1017.52
2019-02-16T02:04:56.034Z,1017.56
2019-02-16T02:05:55.034Z,1017.56
2019-02-16T02:06:55.049Z,1017.58
2019-02-16T02:07:56.072Z,1017.57
2019-02-16T02:08:55.081Z,1017.55
2019-02-16T02:09:56.109Z,1017.55
2019-02-16T02:10:55.123Z,1017.60
2019-02-16T02:11:55.133Z,1017.57
2019-02-16T02:12:56.162Z,1017.58
2019-02-16T02:13:55.174Z,1017.59
2019-02-16T02:14:56.197Z,1017.57
2019-02-16T02:15:55.207Z,1017.58
2019-02-16T02:16:55.225Z,1017.57
2019-02-16T02:17:56.251Z,1017.55
2019-02-16T02:18:55.253Z,1017.53
2019-02-16T02:19:56.280Z,1017.58
2019-02-16T02:20:55.287Z,1017.57
2019-02-16T02:21:55.302Z,1017.57
2019-02-16T02:22:56.338Z,1017.60
2019-02-16T02:23:55.344Z,1017.59
2019-02-16T02:24:56.374Z,1017.59
2019-02-16T02:25:55.378Z,1017.55
2019-02-16T02:26:55.395Z,1017.57
2019-02-16T02:27:56.422Z,1017.54
2019-02-16T02:28:55.423Z,1017.57
2019-02-16T02:29:56.452Z,1017.54
2019-02-16T02:30:55.460Z,1017.58
2019-02-16T02:31:55.473Z,1017.59
2019-02-16T02:32:56.505Z,1017.58
2019-02-16T02:33:55.512Z,1017.58
2019-02-16T02:34:56.542Z,1017.58
2019-02-16T02:35:55.573Z,1017.57
2019-02-16T02:36:55.566Z,1017.60
2019-02-16T02:37:56.597Z,1017.61
2019-02-16T02:38:55.603Z,1017.57
2019-02-16T02:39:56.656Z,1017.58
2019-02-16T02:40:55.633Z,1017.61
2019-02-16T02:41:55.646Z,1017.59
2019-02-16T02:42:56.678Z,1017.61
2019-02-16T02:43:55.682Z,1017.60
2019-02-16T02:44:56.763Z,1017.60
2019-02-16T02:45:55.766Z,1017.57
2019-02-16T02:46:55.737Z,1017.57
2019-02-16T02:47:56.786Z,1017.49
2019-02-16T02:48:55.874Z,1017.52
2019-02-16T02:49:56.805Z,1017.47
2019-02-16T02:50:55.820Z,1017.49
2019-02-16T02:51:55.819Z,1017.45
2019-02-16T02:52:56.862Z,1017.48
2019-02-16T02:53:55.854Z,1017.45
2019-02-16T02:54:56.963Z,1017.45
2019-02-16T02:55:55.884Z,1017.45
2019-02-16T02:56:55.916Z,1017.41
2019-02-16T02:57:56.939Z,1017.43
2019-02-16T02:58:55.937Z,1017.40
2019-02-16T02:59:56.978Z,1017.37
2019-02-16T03:00:55.979Z,1017.36
2019-02-16T03:01:55.991Z,1017.33
2019-02-16T03:02:57.018Z,1017.36
2019-02-16T03:03:56.026Z,1017.36
2019-02-16T03:04:57.062Z,1017.31
2019-02-16T03:05:56.071Z,1017.35
2019-02-16T03:06:56.080Z,1017.38
2019-02-16T03:07:57.110Z,1017.35
2019-02-16T03:08:56.112Z,1017.33
2019-02-16T03:09:57.155Z,1017.33
2019-02-16T03:10:56.157Z,1017.34
2019-02-16T03:11:56.166Z,1017.35
2019-02-16T03:12:57.196Z,1017.33
2019-02-16T03:13:56.200Z,1017.36
2019-02-16T03:14:57.229Z,1017.38
2019-02-16T03:15:56.233Z,1017.34
2019-02-16T03:16:56.252Z,1017.31
2019-02-16T03:17:57.283Z,1017.30
2019-02-16T03:18:56.309Z,1017.33
2019-02-16T03:19:57.321Z,1017.32
2019-02-16T03:20:56.330Z,1017.34
2019-02-16T03:22:02.463Z,1017.30
2019-02-16T03:22:57.366Z,1017.30
2019-02-16T03:23:56.372Z,1017.31
2019-02-16T03:24:57.408Z,1017.27
2019-02-16T03:25:56.415Z,1017.26
2019-02-16T03:26:56.429Z,1017.26
2019-02-16T03:27:57.457Z,1017.28
2019-02-16T03:28:56.524Z,1017.25
2019-02-16T03:29:57.501Z,1017.26
2019-02-16T03:30:56.497Z,1017.26
2019-02-16T03:31:56.516Z,1017.15
2019-02-16T03:32:57.557Z,1017.21
2019-02-16T03:33:56.575Z,1017.19
2019-02-16T03:34:57.584Z,1017.17
2019-02-16T03:35:56.585Z,1017.17
2019-02-16T03:36:56.603Z,1017.16
2019-02-16T03:37:57.636Z,1017.15
2019-02-16T03:38:56.640Z,1017.12
2019-02-16T03:39:57.667Z,1017.10
2019-02-16T03:40:56.671Z,1017.08
2019-02-16T03:41:56.689Z,1017.06
2019-02-16T03:42:57.726Z,1017.05
2019-02-16T03:43:56.733Z,1017.00
2019-02-16T03:44:57.764Z,1016.97
2019-02-16T03:45:56.779Z,1016.98
2019-02-16T03:46:56.965Z,1016.96
2019-02-16T03:47:57.837Z,1016.93
2019-02-16T03:48:56.953Z,1016.92
2019-02-16T03:49:58.318Z,1016.94
2019-02-16T03:50:57.501Z,1016.92
2019-02-16T03:51:56.887Z,1016.87
2019-02-16T03:52:57.899Z,1016.89
2019-02-16T03:53:56.954Z,1016.91
2019-02-16T03:54:58.147Z,1016.89
2019-02-16T03:55:57.392Z,1016.85
2019-02-16T03:56:57.154Z,1016.85
2019-02-16T03:57:59.042Z,1016.84
2019-02-16T03:58:57.090Z,1016.81
2019-02-16T03:59:58.313Z,1016.83
2019-02-16T04:00:57.027Z,1016.81
2019-02-16T04:01:57.050Z,1016.85
2019-02-16T04:02:58.080Z,1016.79
2019-02-16T04:03:57.079Z,1016.80
2019-02-16T04:04:58.132Z,1016.75
2019-02-16T04:05:57.118Z,1016.76
2019-02-16T04:06:57.134Z,1016.71
2019-02-16T04:07:58.168Z,1016.65
2019-02-16T04:08:57.175Z,1016.67
2019-02-16T04:09:58.233Z,1016.66
2019-02-16T04:10:57.200Z,1016.61
2019-02-16T04:11:57.218Z,1016.55
2019-02-16T04:12:58.254Z,1016.57
2019-02-16T04:13:57.254Z,1016.55
2019-02-16T04:14:58.289Z,1016.48
2019-02-16T04:15:57.290Z,1016.48
2019-02-16T04:16:57.325Z,1016.47
2019-02-16T04:17:58.434Z,1016.45
2019-02-16T04:18:57.335Z,1016.42
2019-02-16T04:19:58.378Z,1016.47
2019-02-16T04:20:57.377Z,1016.40
2019-02-16T04:21:57.400Z,1016.37
2019-02-16T04:22:58.426Z,1016.39
2019-02-16T04:23:57.470Z,1016.35
2019-02-16T04:24:58.484Z,1016.31
2019-02-16T04:25:57.463Z,1016.31
2019-02-16T04:26:57.485Z,1016.29
2019-02-16T04:27:58.518Z,1016.23
2019-02-16T04:28:57.519Z,1016.24
2019-02-16T04:29:58.549Z,1016.25
2019-02-16T04:30:57.558Z,1016.24
2019-02-16T04:31:57.576Z,1016.20
2019-02-16T04:32:58.604Z,1016.17
2019-02-16T04:33:57.608Z,1016.15
2019-02-16T04:34:58.642Z,1016.15
2019-02-16T04:35:57.649Z,1016.08
2019-02-16T04:36:57.668Z,1016.09
2019-02-16T04:37:58.694Z,1016.06
2019-02-16T04:38:57.707Z,1016.01
2019-02-16T04:39:58.734Z,1015.96
2019-02-16T04:40:57.731Z,1015.99
2019-02-16T04:41:57.752Z,1015.95
2019-02-16T04:42:58.785Z,1015.93
2019-02-16T04:43:57.792Z,1015.89
2019-02-16T04:44:58.819Z,1015.92
2019-02-16T04:45:57.830Z,1015.87
2019-02-16T04:46:57.838Z,1015.85
2019-02-16T04:47:58.867Z,1015.87
2019-02-16T04:48:57.888Z,1015.81
2019-02-16T04:49:58.912Z,1015.76
2019-02-16T04:50:57.910Z,1015.79
2019-02-16T04:51:57.935Z,1015.77
2019-02-16T04:52:58.965Z,1015.73
2019-02-16T04:53:57.975Z,1015.70
2019-02-16T04:54:58.997Z,1015.69
2019-02-16T04:55:58.007Z,1015.63
2019-02-16T04:56:58.024Z,1015.64
2019-02-16T04:57:59.050Z,1015.62
2019-02-16T04:58:58.055Z,1015.61
2019-02-16T04:59:59.088Z,1015.60
2019-02-16T05:00:58.100Z,1015.56
2019-02-16T05:01:58.166Z,1015.56
2019-02-16T05:02:59.135Z,1015.57
2019-02-16T05:03:58.143Z,1015.52
2019-02-16T05:04:59.360Z,1015.48
2019-02-16T05:05:59.744Z,1015.46
2019-02-16T05:06:58.205Z,1015.45
2019-02-16T05:07:59.242Z,1015.45
2019-02-16T05:08:58.239Z,1015.46
2019-02-16T05:09:59.264Z,1015.40
2019-02-16T05:10:58.269Z,1015.39
2019-02-16T05:11:58.292Z,1015.37
2019-02-16T05:12:59.337Z,1015.34
2019-02-16T05:13:58.325Z,1015.34
2019-02-16T05:14:59.357Z,1015.34
2019-02-16T05:15:58.356Z,1015.29
2019-02-16T05:16:58.446Z,1015.23
2019-02-16T05:17:59.427Z,1015.25
2019-02-16T05:18:58.409Z,1015.25
2019-02-16T05:19:59.443Z,1015.24
2019-02-16T05:20:58.449Z,1015.19
2019-02-16T05:21:58.468Z,1015.10
2019-02-16T05:22:59.496Z,1015.12
2019-02-16T05:23:58.502Z,1015.09
2019-02-16T05:24:59.564Z,1015.09
2019-02-16T05:25:58.538Z,1015.04
2019-02-16T05:26:58.567Z,1015.05
2019-02-16T05:27:59.590Z,1014.97
2019-02-16T05:28:58.584Z,1014.90
2019-02-16T05:29:59.677Z,1014.96
2019-02-16T05:30:58.631Z,1014.93
2019-02-16T05:31:58.803Z,1014.95
2019-02-16T05:32:59.672Z,1014.98
2019-02-16T05:33:58.679Z,1014.94
2019-02-16T05:34:59.714Z,1014.89
2019-02-16T05:35:58.732Z,1014.90
2019-02-16T05:36:58.749Z,1014.89
2019-02-16T05:37:59.771Z,1014.85
2019-02-16T05:38:58.787Z,1014.84
2019-02-16T05:39:59.804Z,1014.77
2019-02-16T05:40:58.823Z,1014.76
2019-02-16T05:41:58.833Z,1014.74
2019-02-16T05:42:59.854Z,1014.71
2019-02-16T05:43:58.860Z,1014.69
2019-02-16T05:44:59.900Z,1014.65
2019-02-16T05:45:58.902Z,1014.61
2019-02-16T05:46:58.941Z,1014.64
2019-02-16T05:47:59.951Z,1014.64
2019-02-16T05:48:58.970Z,1014.61
2019-02-16T05:49:59.992Z,1014.62
2019-02-16T05:50:58.985Z,1014.58
2019-02-16T05:51:59.011Z,1014.57
2019-02-16T05:53:00.044Z,1014.54
2019-02-16T05:53:59.050Z,1014.57
2019-02-16T05:55:00.226Z,1014.50
2019-02-16T05:55:59.075Z,1014.50
2019-02-16T05:56:59.111Z,1014.51
2019-02-16T05:58:00.135Z,1014.44
2019-02-16T05:58:59.139Z,1014.41
2019-02-16T06:00:00.358Z,1014.40
2019-02-16T06:00:59.192Z,1014.40
2019-02-16T06:01:59.189Z,1014.40
2019-02-16T06:03:00.239Z,1014.40
2019-02-16T06:03:59.236Z,1014.36
2019-02-16T06:05:00.335Z,1014.36
2019-02-16T06:05:59.320Z,1014.29
2019-02-16T06:06:59.285Z,1014.29
2019-02-16T06:08:00.338Z,1014.27
2019-02-16T06:08:59.312Z,1014.26
2019-02-16T06:10:00.348Z,1014.21
2019-02-16T06:10:59.391Z,1014.18
2019-02-16T06:11:59.377Z,1014.14
2019-02-16T06:13:00.397Z,1014.11
2019-02-16T06:13:59.409Z,1014.08
2019-02-16T06:15:00.445Z,1014.02
2019-02-16T06:15:59.444Z,1014.02
2019-02-16T06:16:59.470Z,1013.98
2019-02-16T06:18:00.500Z,1013.94
2019-02-16T06:18:59.514Z,1013.90
2019-02-16T06:20:00.535Z,1013.91
2019-02-16T06:21:01.706Z,1013.82
2019-02-16T06:21:59.630Z,1013.80
2019-02-16T06:23:04.338Z,1013.77
2019-02-16T06:23:59.593Z,1013.76
2019-02-16T06:25:00.633Z,1013.76
2019-02-16T06:25:59.637Z,1013.71
2019-02-16T06:26:59.654Z,1013.72
2019-02-16T06:28:00.682Z,1013.75
2019-02-16T06:28:59.691Z,1013.70
2019-02-16T06:30:00.716Z,1013.70
2019-02-16T06:30:59.764Z,1013.69
2019-02-16T06:31:59.743Z,1013.65
2019-02-16T06:33:00.827Z,1013.64
2019-02-16T06:33:59.814Z,1013.60
2019-02-16T06:35:00.892Z,1013.62
2019-02-16T06:35:59.815Z,1013.58
2019-02-16T06:36:59.830Z,1013.57
2019-02-16T06:38:00.868Z,1013.56
2019-02-16T06:38:59.870Z,1013.53
2019-02-16T06:40:00.897Z,1013.49
2019-02-16T06:40:59.906Z,1013.43
2019-02-16T06:41:59.920Z,1013.45
2019-02-16T06:43:00.955Z,1013.41
2019-02-16T06:43:59.998Z,1013.38
2019-02-16T06:45:00.991Z,1013.35
2019-02-16T06:46:00.843Z,1013.31
2019-02-16T06:47:00.010Z,1013.29
2019-02-16T06:48:01.057Z,1013.28
2019-02-16T06:49:00.064Z,1013.25
2019-02-16T06:50:01.088Z,1013.23
2019-02-16T06:51:00.088Z,1013.21
2019-02-16T06:52:00.115Z,1013.23
2019-02-16T06:53:01.185Z,1013.19
2019-02-16T06:54:00.155Z,1013.21
2019-02-16T06:55:01.189Z,1013.20
2019-02-16T06:56:00.190Z,1013.21
2019-02-16T06:57:00.220Z,1013.23
2019-02-16T06:58:01.235Z,1013.21
2019-02-16T06:59:00.239Z,1013.17
2019-02-16T07:00:01.275Z,1013.20
2019-02-16T07:01:00.303Z,1013.15
2019-02-16T07:02:00.317Z,1013.14
2019-02-16T07:03:01.330Z,1013.08
2019-02-16T07:04:00.338Z,1013.06
2019-02-16T07:05:01.457Z,1013.12
2019-02-16T07:06:00.374Z,1013.04
2019-02-16T07:07:00.389Z,1013.09
2019-02-16T07:08:01.423Z,1013.05
2019-02-16T07:09:00.427Z,1013.05
2019-02-16T07:10:01.454Z,1013.05
2019-02-16T07:11:00.512Z,1013.08
2019-02-16T07:12:00.546Z,1013.09
2019-02-16T07:13:01.507Z,1013.05
2019-02-16T07:14:00.514Z,1012.99
2019-02-16T07:15:01.544Z,1013.02
2019-02-16T07:16:00.549Z,1013.01
2019-02-16T07:17:00.575Z,1012.94
2019-02-16T07:18:01.614Z,1013.00
2019-02-16T07:19:00.603Z,1012.92
2019-02-16T07:20:01.643Z,1012.93
2019-02-16T07:21:00.649Z,1012.89
2019-02-16T07:22:00.659Z,1012.94
2019-02-16T07:23:01.703Z,1012.88
2019-02-16T07:24:00.701Z,1012.89
2019-02-16T07:25:01.753Z,1012.84
2019-02-16T07:26:00.732Z,1012.81
2019-02-16T07:27:00.759Z,1012.81
2019-02-16T07:28:01.788Z,1012.77
2019-02-16T07:29:00.835Z,1012.73
2019-02-16T07:30:01.825Z,1012.71
2019-02-16T07:31:00.829Z,1012.71
2019-02-16T07:32:00.894Z,1012.69
2019-02-16T07:33:01.874Z,1012.67
2019-02-16T07:34:00.883Z,1012.63
2019-02-16T07:35:01.914Z,1012.64
2019-02-16T07:36:00.921Z,1012.63
2019-02-16T07:37:00.935Z,1012.65
2019-02-16T07:38:01.998Z,1012.64
2019-02-16T07:39:00.982Z,1012.60
2019-02-16T07:40:02.011Z,1012.58
2019-02-16T07:41:01.015Z,1012.60
2019-02-16T07:42:01.035Z,1012.58
2019-02-16T07:43:02.055Z,1012.57
2019-02-16T07:44:01.064Z,1012.53
2019-02-16T07:45:02.093Z,1012.55
2019-02-16T07:46:01.101Z,1012.53
2019-02-16T07:47:01.118Z,1012.53
2019-02-16T07:48:02.161Z,1012.49
2019-02-16T07:49:01.157Z,1012.52
2019-02-16T07:50:02.191Z,1012.46
2019-02-16T07:51:01.190Z,1012.45
2019-02-16T07:52:01.207Z,1012.43
2019-02-16T07:53:02.243Z,1012.41
2019-02-16T07:54:01.244Z,1012.40
2019-02-16T07:55:02.279Z,1012.35
2019-02-16T07:56:01.289Z,1012.38
2019-02-16T07:57:01.306Z,1012.37
2019-02-16T07:58:02.335Z,1012.35
2019-02-16T07:59:01.345Z,1012.30
2019-02-16T08:00:02.374Z,1012.28
2019-02-16T08:01:01.401Z,1012.27
2019-02-16T08:02:01.399Z,1012.28
2019-02-16T08:03:02.522Z,1012.27
2019-02-16T08:04:01.428Z,1012.25
2019-02-16T08:05:02.468Z,1012.24
2019-02-16T08:06:01.465Z,1012.28
2019-02-16T08:07:01.482Z,1012.23
2019-02-16T08:08:02.517Z,1012.20
2019-02-16T08:09:01.535Z,1012.21
2019-02-16T08:10:02.554Z,1012.20
2019-02-16T08:11:01.562Z,1012.17
2019-02-16T08:12:01.584Z,1012.18
2019-02-16T08:13:02.622Z,1012.19
2019-02-16T08:14:01.626Z,1012.15
2019-02-16T08:15:02.662Z,1012.14
2019-02-16T08:16:01.651Z,1012.20
2019-02-16T08:17:01.681Z,1012.12
2019-02-16T08:18:02.700Z,1012.12
2019-02-16T08:19:01.705Z,1012.08
2019-02-16T08:20:02.739Z,1012.12
2019-02-16T08:21:01.745Z,1012.09
2019-02-16T08:22:01.768Z,1012.13
2019-02-16T08:23:02.791Z,1012.13
2019-02-16T08:24:01.805Z,1012.11
2019-02-16T08:25:02.827Z,1012.11
2019-02-16T08:26:01.836Z,1012.10
2019-02-16T08:27:01.855Z,1012.08
2019-02-16T08:28:02.898Z,1012.08
2019-02-16T08:29:01.893Z,1012.09
2019-02-16T08:30:02.917Z,1012.10
2019-02-16T08:31:01.959Z,1012.05
2019-02-16T08:32:01.949Z,1012.09
2019-02-16T08:33:02.974Z,1012.06
2019-02-16T08:34:01.978Z,1012.06
2019-02-16T08:35:03.022Z,1012.05
2019-02-16T08:36:02.026Z,1012.05
2019-02-16T08:37:02.039Z,1012.03
2019-02-16T08:38:03.078Z,1012.04
2019-02-16T08:39:02.075Z,1012.02
2019-02-16T08:40:03.110Z,1012.03
2019-02-16T08:41:02.108Z,1012.02
2019-02-16T08:42:02.130Z,1011.98
2019-02-16T08:43:03.163Z,1011.94
2019-02-16T08:44:02.195Z,1011.94
2019-02-16T08:45:03.226Z,1011.91
2019-02-16T08:46:02.217Z,1011.88
2019-02-16T08:47:02.218Z,1011.93
2019-02-16T08:48:03.249Z,1011.87
2019-02-16T08:49:02.273Z,1011.84
2019-02-16T08:50:03.282Z,1011.83
2019-02-16T08:51:02.297Z,1011.80
2019-02-16T08:52:02.311Z,1011.80
2019-02-16T08:53:03.339Z,1011.79
2019-02-16T08:54:02.363Z,1011.78
2019-02-16T08:55:03.381Z,1011.83
2019-02-16T08:56:02.408Z,1011.80
2019-02-16T08:57:02.426Z,1011.76
2019-02-16T08:58:03.427Z,1011.80
2019-02-16T08:59:02.434Z,1011.77
2019-02-16T09:00:03.466Z,1011.79
2019-02-16T09:01:02.479Z,1011.77
2019-02-16T09:02:02.506Z,1011.77
2019-02-16T09:03:03.577Z,1011.76
2019-02-16T09:04:02.537Z,1011.80
2019-02-16T09:05:03.560Z,1011.81
2019-02-16T09:06:02.567Z,1011.83
2019-02-16T09:07:02.594Z,1011.87
2019-02-16T09:08:03.653Z,1011.87
2019-02-16T09:09:02.629Z,1011.90
2019-02-16T09:10:03.647Z,1011.85
2019-02-16T09:11:02.671Z,1011.84
2019-02-16T09:12:02.673Z,1011.80
2019-02-16T09:13:03.706Z,1011.80
2019-02-16T09:14:02.732Z,1011.77
2019-02-16T09:15:03.743Z,1011.78
2019-02-16T09:16:02.755Z,1011.80
2019-02-16T09:17:02.759Z,1011.79
2019-02-16T09:18:03.790Z,1011.80
2019-02-16T09:19:02.810Z,1011.79
2019-02-16T09:20:03.838Z,1011.77
2019-02-16T09:21:02.841Z,1011.72
2019-02-16T09:22:02.856Z,1011.71
2019-02-16T09:23:03.893Z,1011.67
2019-02-16T09:24:02.895Z,1011.61
2019-02-16T09:25:03.938Z,1011.61
2019-02-16T09:26:02.927Z,1011.56
2019-02-16T09:27:02.998Z,1011.62
2019-02-16T09:28:03.971Z,1011.63
2019-02-16T09:29:02.987Z,1011.65
2019-02-16T09:30:04.013Z,1011.67
2019-02-16T09:31:03.025Z,1011.63
2019-02-16T09:32:03.041Z,1011.69
2019-02-16T09:33:04.129Z,1011.67
2019-02-16T09:34:03.096Z,1011.65
2019-02-16T09:35:04.103Z,1011.72
2019-02-16T09:36:03.108Z,1011.70
2019-02-16T09:37:03.125Z,1011.66
2019-02-16T09:38:04.157Z,1011.72
2019-02-16T09:39:03.160Z,1011.66
2019-02-16T09:40:04.195Z,1011.69
2019-02-16T09:41:03.199Z,1011.69
2019-02-16T09:42:03.211Z,1011.70
2019-02-16T09:43:04.247Z,1011.69
2019-02-16T09:44:03.427Z,1011.72
2019-02-16T09:45:04.290Z,1011.75
2019-02-16T09:46:03.646Z,1011.74
2019-02-16T09:47:03.456Z,1011.72
2019-02-16T09:48:04.344Z,1011.73
2019-02-16T09:49:03.347Z,1011.74
2019-02-16T09:50:04.371Z,1011.67
2019-02-16T09:51:03.384Z,1011.71
2019-02-16T09:52:03.396Z,1011.73
2019-02-16T09:53:04.426Z,1011.73
2019-02-16T09:54:08.471Z,1011.75
2019-02-16T09:55:04.474Z,1011.76
2019-02-16T09:56:03.467Z,1011.75
2019-02-16T09:57:03.489Z,1011.76
2019-02-16T09:58:04.516Z,1011.78
2019-02-16T09:59:03.883Z,1011.78
2019-02-16T10:00:04.556Z,1011.82
2019-02-16T10:01:03.566Z,1011.81
2019-02-16T10:02:03.573Z,1011.80
2019-02-16T10:03:04.608Z,1011.79
2019-02-16T10:04:03.623Z,1011.75
2019-02-16T10:05:04.654Z,1011.74
2019-02-16T10:06:03.655Z,1011.72
2019-02-16T10:07:03.670Z,1011.67
2019-02-16T10:08:04.704Z,1011.66
2019-02-16T10:09:03.707Z,1011.63
2019-02-16T10:10:04.739Z,1011.60
2019-02-16T10:11:03.739Z,1011.62
2019-02-16T10:12:03.760Z,1011.59
2019-02-16T10:13:04.792Z,1011.59
2019-02-16T10:14:03.794Z,1011.58
2019-02-16T10:15:06.824Z,1011.59
2019-02-16T10:16:03.830Z,1011.58
2019-02-16T10:17:03.856Z,1011.64
2019-02-16T10:18:04.880Z,1011.62
2019-02-16T10:19:03.881Z,1011.67
2019-02-16T10:20:04.909Z,1011.62
2019-02-16T10:21:03.923Z,1011.60
2019-02-16T10:22:03.935Z,1011.61
2019-02-16T10:23:04.969Z,1011.58
2019-02-16T10:24:03.979Z,1011.55
2019-02-16T10:25:05.039Z,1011.58
2019-02-16T10:26:04.009Z,1011.55
2019-02-16T10:27:04.035Z,1011.54
2019-02-16T10:28:05.105Z,1011.57
2019-02-16T10:29:04.066Z,1011.55
2019-02-16T10:30:05.101Z,1011.52
2019-02-16T10:31:04.103Z,1011.59
2019-02-16T10:32:04.122Z,1011.64
2019-02-16T10:33:05.155Z,1011.61
2019-02-16T10:34:04.155Z,1011.60
2019-02-16T10:35:05.187Z,1011.63
2019-02-16T10:36:04.205Z,1011.65
2019-02-16T10:37:04.203Z,1011.69
2019-02-16T10:38:05.315Z,1011.69
2019-02-16T10:39:04.242Z,1011.80
2019-02-16T10:40:05.693Z,1011.78
2019-02-16T10:41:04.303Z,1011.82
2019-02-16T10:42:04.346Z,1011.81
2019-02-16T10:43:05.326Z,1011.85
2019-02-16T10:44:04.345Z,1011.91
2019-02-16T10:45:05.390Z,1011.98
2019-02-16T10:46:04.374Z,1011.99
2019-02-16T10:47:04.382Z,1012.01
2019-02-16T10:48:05.431Z,1012.04
2019-02-16T10:49:04.427Z,1012.00
2019-02-16T10:50:05.456Z,1012.05
2019-02-16T10:51:04.462Z,1012.05
2019-02-16T10:52:04.475Z,1012.02
2019-02-16T10:53:05.502Z,1012.04
2019-02-16T10:54:04.517Z,1011.98
2019-02-16T10:55:05.546Z,1011.99
2019-02-16T10:56:04.546Z,1011.94
2019-02-16T10:57:04.569Z,1011.98
2019-02-16T10:58:05.604Z,1011.95
2019-02-16T10:59:04.604Z,1011.96
2019-02-16T11:00:05.630Z,1011.96
2019-02-16T11:01:04.664Z,1012.02
2019-02-16T11:02:04.653Z,1012.03
2019-02-16T11:03:05.872Z,1012.03
2019-02-16T11:04:04.694Z,1012.03
2019-02-16T11:05:05.732Z,1012.05
2019-02-16T11:06:04.742Z,1012.06
2019-02-16T11:07:04.783Z,1012.03
2019-02-16T11:08:05.774Z,1012.04
2019-02-16T11:09:04.785Z,1012.10
2019-02-16T11:10:05.813Z,1012.15
2019-02-16T11:11:04.816Z,1012.20
2019-02-16T11:12:04.843Z,1012.23
2019-02-16T11:13:05.870Z,1012.18
2019-02-16T11:14:04.878Z,1012.18
2019-02-16T11:15:05.900Z,1012.21
2019-02-16T11:16:04.910Z,1012.22
2019-02-16T11:17:04.926Z,1012.23
2019-02-16T11:18:05.958Z,1012.23
2019-02-16T11:19:04.987Z,1012.19
2019-02-16T11:20:06.038Z,1012.17
2019-02-16T11:21:04.997Z,1012.19
2019-02-16T11:22:05.060Z,1012.17
2019-02-16T11:23:06.044Z,1012.19
2019-02-16T11:24:05.089Z,1012.22
2019-02-16T11:25:06.094Z,1012.24
2019-02-16T11:26:05.087Z,1012.27
2019-02-16T11:27:05.141Z,1012.35
2019-02-16T11:28:06.201Z,1012.31
2019-02-16T11:29:05.144Z,1012.32
2019-02-16T11:30:06.182Z,1012.32
2019-02-16T11:31:05.187Z,1012.30
2019-02-16T11:32:05.247Z,1012.29
2019-02-16T11:33:06.222Z,1012.27
2019-02-16T11:34:05.235Z,1012.25
2019-02-16T11:35:06.257Z,1012.28
2019-02-16T11:36:05.286Z,1012.22
2019-02-16T11:37:05.284Z,1012.22
2019-02-16T11:38:06.330Z,1012.23
2019-02-16T11:39:05.313Z,1012.29
2019-02-16T11:40:06.359Z,1012.29
2019-02-16T11:41:05.360Z,1012.34
2019-02-16T11:42:05.373Z,1012.34
2019-02-16T11:43:06.405Z,1012.39
2019-02-16T11:44:05.440Z,1012.37
2019-02-16T11:45:06.443Z,1012.37
2019-02-16T11:46:05.445Z,1012.39
2019-02-16T11:47:05.469Z,1012.38
2019-02-16T11:48:06.492Z,1012.38
2019-02-16T11:49:05.507Z,1012.44
2019-02-16T11:50:06.531Z,1012.42
2019-02-16T11:51:05.540Z,1012.41
2019-02-16T11:52:05.598Z,1012.36
2019-02-16T11:53:06.600Z,1012.34
2019-02-16T11:54:05.589Z,1012.38
2019-02-16T11:55:06.623Z,1012.35
2019-02-16T11:56:05.625Z,1012.40
2019-02-16T11:57:05.641Z,1012.42
2019-02-16T11:58:06.670Z,1012.49
2019-02-16T11:59:05.690Z,1012.52
2019-02-16T12:00:06.712Z,1012.51
2019-02-16T12:01:05.727Z,1012.57
2019-02-16T12:02:05.748Z,1012.50
2019-02-16T12:03:06.756Z,1012.57
2019-02-16T12:04:05.783Z,1012.59
2019-02-16T12:05:06.832Z,1012.61
2019-02-16T12:06:05.840Z,1012.64